LIRF/FCO METAR and TAF weather

Enter ICAO airport designator
Station Type Date Time Source
LIRF METAR 2022/06/27 07:50 UTC NOAA

LIRF 270750Z 17007KT 140V200 CAVOK 33/13 Q1015 NOSIG


Station Type Date Time Source
LIRF Decoded METAR 2022/06/27 07:50 UTC NOAA

Roma Fiumicino, Italy (LIRF) 41-48N 012-14E 3M
Jun 27, 2022 - 03:50 AM EDT / 2022.06.27 0750 UTC
Wind: from the S (170 degrees) at 8 MPH (7 KT) (direction variable):0
Visibility: greater than 7 mile(s):0
Temperature: 91 F (33 C)
Dew Point: 55 F (13 C)
Relative Humidity: 29%
Pressure (altimeter): 29.97 in. Hg (1015 hPa)
ob: LIRF 270750Z 17007KT 140V200 CAVOK 33/13 Q1015 NOSIG
cycle: 8

Station Type Date Time Source
LIRF TAF 2022/06/27 06:26 UTC NOAA

TAF LIRF 270500Z 2706/2812 08006KT CAVOK
BECMG 2707/2709 17012KT
TEMPO 2712/2716 18015G25KT

Example: see airport list